x

Orange Beach - 44 Nm Se Of Mobile, Al (42012) Wave Buoy

9:50pm - Sat 30th Jul 2016 All times are CDT. -5 hours from GMT.

  • Sig Wave height 1.3ft
  • Swell Direction
  • Peak Period 3s
  • Average Period 3s
  • Wind
    9mph, 11mph gusts
  • Sea Temp 88°f
  • Air Temp 86°f
  • Sea Pressure 1017.2mb
  • Orange Beach - 44 Nm Se Of Mobile, Al
  • Orange Beach - 44 Nm Se Of Mobile, Al

More Historic Weather Station data

Upgrade to MSW Pro to gain access to the past 30 days of data for over 8000 Wavebouys and Weather Stations around the globe.

Join Pro

Comparision Forecast

View Surf forecast
   
Sat 07/30 9:50pm 1.3ft 3s 3s 9 11 mph 1017.2mb 88f 86f
8:50pm 1.3ft 3s 3s 9 11 mph 1016.7mb 89f 86f
7:50pm 1.3ft 3s 3s 11 13 mph 1015.9mb 89f 86f
6:50pm 1.3ft 3s 3s 7 9 mph 1015.9mb 89f 86f
5:50pm 1ft 3s 4s 11 16 mph 1015.8mb 89f 86f
4:50pm 1.3ft 3s 4s 9 11 mph 1016.1mb 89f 86f
3:50pm 1.3ft 3s 4s 7 11 mph 1016.5mb 89f 86f
2:50pm 1.3ft 4s 4s 9 11 mph 1016.9mb 89f 85f
1:50pm 1.3ft 3s 4s 4
mph
1017.5mb 89f 85f
12:50pm 1.3ft 3s 4s 4 7 mph 1017.9mb 88f 85f
11:50am 1.3ft 3s 3s 11 13 mph 1018.2mb 88f 84f
10:50am 1.6ft 3s 4s 13 18 mph 1018.3mb 88f 80f
9:50am 2ft 4s 4s 9 11 mph 1017.8mb 88f 86f
8:50am 1.6ft 4s 4s 7 9 mph 1017.6mb 88f 86f
7:50am 2ft 3s 4s 11 13 mph 1017.3mb 87f 86f
6:50am 2ft 3s 4s 11 13 mph 1016.7mb 88f 86f
5:50am 2ft 4s 4s 11 16 mph 1016.1mb 88f 86f
4:50am 2ft 5s 4s 11 13 mph 1015.7mb 88f 86f
3:50am 2ft 6s 4s 11 13 mph 1015.4mb 88f 86f
2:50am 1.6ft 5s 4s 11 16 mph 1015.6mb 88f 85f
12:50am 1.6ft 5s 4s 11 13 mph 1016.5mb 88f 85f
Fri 07/29 11:50pm 1.3ft 6s 4s 11 13 mph 1016.8mb 88f 85f
10:50pm 1.3ft 6s 4s 11 13 mph 1016.9mb 88f 85f
9:50pm 1.3ft 6s 4s 9 13 mph 1016.9mb 89f 86f
8:50pm 1.3ft 6s 4s 9 11 mph 1016.3mb 89f 85f
7:50pm 1.3ft 7s 4s 9
mph
1016.2mb 89f 86f
6:50pm 1.6ft 6s 4s 9 11 mph 1016.1mb 89f 86f
5:50pm 1.6ft 6s 4s 4 9 mph 1016mb 89f 87f
4:50pm 1.6ft 6s 4s 7 9 mph 1016.1mb 89f 86f
3:50pm 1.6ft 6s 4s 9 11 mph 1016.5mb 89f 86f
2:50pm 1.6ft 5s 4s 9 11 mph 1016.7mb 89f 85f
1:50pm 2ft 6s 4s 9
mph
1017.4mb 88f 85f
12:50pm 2ft 5s 4s 7 9 mph 1017.6mb 88f 85f
11:50am 2.5ft 5s 4s 7 9 mph 1018mb 88f 85f
10:50am 2ft 6s 4s 7
mph
1018mb 87f 85f
9:50am 2ft 6s 4s 7 9 mph 1017.8mb 87f 86f
8:50am 2ft 5s 4s 7 9 mph 1017.6mb 87f 85f
7:50am 1.6ft 6s 4s 7 9 mph 1017.4mb 87f 85f
6:50am 2ft 6s 4s 7 9 mph 1017mb 87f 85f
5:50am 1.6ft 5s 4s 9 11 mph 1016.4mb 87f 85f
4:50am 1.6ft 5s 4s 9 13 mph 1016.3mb 87f 85f
3:50am 1.6ft 6s 4s 9 11 mph 1016.3mb 87f 85f
2:50am 1.6ft 6s 4s 11 13 mph 1016.6mb 87f 85f
1:50am 1.3ft 6s 4s 11 13 mph 1016.7mb 87f 85f
12:50am 1.3ft 6s 4s 9 11 mph 1017mb 87f 86f
Thu 07/28 11:50pm 1ft 6s 4s 9 13 mph 1017.2mb 87f 86f
10:50pm 1ft 6s 4s 7 9 mph 1016.8mb 87f 86f
9:50pm 1ft 6s 4s 9
mph
1017.2mb 88f 86f
8:50pm 1.3ft 6s 4s 7 9 mph 1016.9mb 88f 85f
7:50pm 1.3ft 5s 4s 7 9 mph 1016.5mb 88f 85f
6:50pm 1.3ft 6s 4s 7 9 mph 1015.9mb 88f 86f
5:50pm 1.3ft 5s 4s 7 9 mph 1015.9mb 88f 86f
4:50pm 1.3ft 5s 4s 9
mph
1016.4mb 88f 85f
3:50pm 1.3ft 5s 4s 7 9 mph 1016.6mb 88f 86f
2:50pm 1.6ft 4s 4s 7 9 mph 1017.2mb 88f 85f
12:50pm 2ft 4s 4s 9 11 mph 1018.5mb 88f 85f
11:50am 1.6ft 4s 4s 9 11 mph 1018.6mb 87f 85f
10:50am 1.6ft 4s 4s 9 11 mph 1018.5mb 87f 85f
9:50am 1.6ft 5s 4s 7 9 mph 1018.2mb 87f 85f
8:50am 1.6ft 5s 4s 4 7 mph 1018.1mb 87f 85f
7:50am 1.6ft 6s 4s 4 7 mph 1017.6mb 87f 85f
6:50am 1.6ft 4s 4s 4 7 mph 1017.3mb 87f 84f
5:50am 1.3ft 6s 4s 7 9 mph 1017.4mb 87f 84f
4:50am 1.6ft 6s 4s 9 11 mph 1017.4mb 87f 84f
3:50am 1.6ft 5s 4s 7 9 mph 1017.1mb 87f 84f
2:50am 1.6ft 5s 4s 7 9 mph 1017mb 87f 84f
1:50am 1.6ft 4s 4s 7 9 mph 1016.7mb 87f 84f
12:50am 1.6ft 5s 4s 7 9 mph 1017.1mb 87f 85f
Wed 07/27 11:50pm 2ft 4s 4s 4
mph
1017.2mb 87f 85f
10:50pm 2.5ft 4s 4s 4
mph
1017.3mb 87f 84f
9:50pm 2.5ft 4s 4s 4 7 mph 1017.6mb 87f 84f
8:50pm 2.5ft 4s 4s 7 11 mph 1017mb 87f 85f
7:50pm 2.5ft 5s 4s 13 16 mph 1017.2mb 87f 85f
6:50pm 2.5ft 4s 4s 16 20 mph 1017.2mb 87f 86f
5:50pm 2.5ft 5s 4s 13 16 mph 1016.9mb 87f 86f
4:50pm 3ft 5s 4s 13 18 mph 1016.7mb 87f 86f
3:50pm 2.5ft 5s 4s 16 18 mph 1016.9mb 87f 86f
2:50pm 3ft 5s 4s 13 18 mph 1017.5mb 87f 85f
1:50pm 3ft 5s 4s 16 18 mph 1018.3mb 87f 85f
12:50pm 2.5ft 5s 4s 16 18 mph 1018.5mb 87f 85f
11:50am 2.5ft 6s 4s 16 18 mph 1018.6mb 87f 85f
10:50am 2.5ft 5s 4s 13 16 mph 1018.7mb 87f 85f
9:50am 2.5ft 5s 4s 13 18 mph 1018.1mb 87f 85f
8:50am 2.5ft 6s 4s 11 13 mph 1017.7mb 87f 85f
7:50am 2.5ft 6s 4s 11 13 mph 1017.5mb 87f 85f
6:50am 3ft 5s 5s 9 11 mph 1017mb 87f 85f
5:50am 3ft 5s 5s 9 11 mph 1016.4mb 87f 85f
4:50am 3.5ft 6s 5s 11 13 mph 1015.8mb 87f 84f
3:50am 3.5ft 5s 5s 13 16 mph 1015.6mb 87f 83f